createdAt,value
2023-03-28T00:01:12.979Z,99.90
2023-03-28T00:03:40.277Z,99.90
2023-03-28T00:06:13.588Z,99.90
2023-03-28T00:08:40.693Z,99.90
2023-03-28T00:11:10.136Z,99.90
2023-03-28T00:13:37.513Z,99.90
2023-03-28T00:16:12.687Z,99.90
2023-03-28T00:18:40.453Z,99.90
2023-03-28T00:21:23.672Z,99.90
2023-03-28T00:23:52.452Z,99.90
2023-03-28T00:26:20.878Z,99.90
2023-03-28T00:28:47.600Z,99.90
2023-03-28T00:31:14.855Z,99.90
2023-03-28T00:33:41.987Z,99.90
2023-03-28T00:36:10.246Z,99.90
2023-03-28T00:38:38.412Z,99.90
2023-03-28T00:41:05.770Z,99.90
2023-03-28T00:43:47.248Z,99.90
2023-03-28T00:46:24.534Z,99.90
2023-03-28T00:48:59.020Z,99.90
2023-03-28T00:51:29.609Z,99.90
2023-03-28T00:53:59.907Z,99.90
2023-03-28T00:56:30.406Z,99.90
2023-03-28T00:58:57.932Z,99.90
2023-03-28T01:01:24.541Z,99.90
2023-03-28T01:04:02.168Z,99.90
2023-03-28T01:06:32.849Z,99.90
2023-03-28T01:09:02.020Z,99.90
2023-03-28T01:11:28.999Z,99.90
2023-03-28T01:13:55.876Z,99.90
2023-03-28T01:16:22.955Z,99.90
2023-03-28T01:18:52.904Z,99.90
2023-03-28T01:21:42.052Z,99.90
2023-03-28T01:24:46.043Z,99.90
2023-03-28T01:27:37.171Z,99.90
2023-03-28T01:30:29.623Z,99.90
2023-03-28T01:33:20.841Z,99.90
2023-03-28T01:36:33.562Z,99.90
2023-03-28T01:39:13.357Z,99.90
2023-03-28T01:42:07.561Z,99.90
2023-03-28T01:44:51.650Z,99.90
2023-03-28T01:47:43.601Z,99.90
2023-03-28T01:50:28.516Z,99.90
2023-03-28T01:53:19.040Z,99.90
2023-03-28T01:56:09.701Z,99.90
2023-03-28T01:58:57.318Z,99.90
2023-03-28T02:01:30.927Z,99.90
2023-03-28T02:04:19.926Z,99.90
2023-03-28T02:06:50.773Z,99.90
2023-03-28T02:09:24.169Z,99.90
2023-03-28T02:11:56.266Z,99.90
2023-03-28T02:14:26.392Z,99.90
2023-03-28T02:17:00.376Z,99.90
2023-03-28T02:19:28.566Z,99.90
2023-03-28T02:22:12.634Z,99.90
2023-03-28T02:24:39.154Z,99.90
2023-03-28T02:27:08.601Z,99.90
2023-03-28T02:29:39.008Z,99.90
2023-03-28T02:32:05.913Z,99.90
2023-03-28T02:34:32.439Z,99.90
2023-03-28T02:37:19.176Z,99.90
2023-03-28T02:40:07.370Z,99.90
2023-03-28T02:43:13.435Z,99.90
2023-03-28T02:45:42.809Z,99.90
2023-03-28T02:48:33.545Z,99.90
2023-03-28T02:51:13.634Z,99.90
2023-03-28T02:54:03.655Z,99.90
2023-03-28T02:57:01.022Z,99.90
2023-03-28T02:59:34.417Z,99.90
2023-03-28T03:02:03.329Z,99.90
2023-03-28T03:04:29.932Z,99.90
2023-03-28T03:06:56.500Z,99.90
2023-03-28T03:09:23.239Z,99.90
2023-03-28T03:11:49.739Z,99.90
2023-03-28T03:14:16.473Z,99.90
2023-03-28T03:16:43.596Z,99.90
2023-03-28T03:19:10.391Z,99.90
2023-03-28T03:21:37.256Z,99.90
2023-03-28T03:24:04.252Z,99.90
2023-03-28T03:26:30.899Z,99.90
2023-03-28T03:28:57.485Z,99.90
2023-03-28T03:31:24.277Z,99.90
2023-03-28T03:33:51.033Z,99.90
2023-03-28T03:36:18.694Z,99.90
2023-03-28T03:38:45.240Z,99.90
2023-03-28T03:41:11.820Z,99.90
2023-03-28T03:43:38.329Z,99.90
2023-03-28T03:46:05.199Z,99.90
2023-03-28T03:48:31.843Z,99.90
2023-03-28T03:50:58.654Z,99.90
2023-03-28T03:53:25.152Z,99.90
2023-03-28T03:55:51.788Z,99.90
2023-03-28T03:58:18.661Z,99.90
2023-03-28T04:00:48.755Z,99.90
2023-03-28T04:03:24.553Z,99.90
2023-03-28T04:05:52.785Z,99.90
2023-03-28T04:08:19.327Z,99.90
2023-03-28T04:10:47.456Z,99.90
2023-03-28T04:13:14.048Z,99.90
2023-03-28T04:15:40.667Z,99.90
2023-03-28T04:18:09.541Z,99.90
2023-03-28T04:20:36.598Z,99.90
2023-03-28T04:23:05.537Z,99.90
2023-03-28T04:25:32.161Z,99.90
2023-03-28T04:28:01.701Z,99.90
2023-03-28T04:30:28.346Z,99.90
2023-03-28T04:32:54.889Z,99.90
2023-03-28T04:35:21.719Z,99.90
2023-03-28T04:37:49.175Z,99.90
2023-03-28T04:40:16.395Z,99.90
2023-03-28T04:42:43.410Z,99.90
2023-03-28T04:45:10.428Z,99.90
2023-03-28T04:47:39.643Z,99.90
2023-03-28T04:50:08.465Z,99.90
2023-03-28T04:52:36.077Z,99.90
2023-03-28T04:55:02.780Z,99.90
2023-03-28T04:57:29.301Z,99.90
2023-03-28T04:59:55.957Z,99.90
2023-03-28T05:02:22.619Z,99.90
2023-03-28T05:04:49.216Z,99.90
2023-03-28T05:07:15.806Z,99.90
2023-03-28T05:09:42.339Z,99.90
2023-03-28T05:12:08.894Z,99.90
2023-03-28T05:14:35.469Z,99.90
2023-03-28T05:17:01.988Z,99.90
2023-03-28T05:19:28.493Z,99.90
2023-03-28T05:21:55.111Z,99.90
2023-03-28T05:24:21.652Z,99.90
2023-03-28T05:26:48.493Z,99.90
2023-03-28T05:29:15.035Z,99.90
2023-03-28T05:31:41.596Z,99.90
2023-03-28T05:34:08.312Z,99.90
2023-03-28T05:36:34.824Z,99.90
2023-03-28T05:39:01.361Z,99.90
2023-03-28T05:41:28.010Z,99.90
2023-03-28T05:43:54.566Z,99.90
2023-03-28T05:46:21.377Z,99.90
2023-03-28T05:48:49.381Z,99.90
2023-03-28T05:51:16.947Z,99.90
2023-03-28T05:53:43.989Z,99.90
2023-03-28T05:56:10.785Z,99.90
2023-03-28T05:58:37.302Z,99.90
2023-03-28T06:01:04.441Z,99.90
2023-03-28T06:03:32.408Z,99.90
2023-03-28T06:05:59.836Z,99.90
2023-03-28T06:08:27.239Z,99.90
2023-03-28T06:10:53.813Z,99.90
2023-03-28T06:13:20.542Z,99.90
2023-03-28T06:15:47.256Z,99.90
2023-03-28T06:18:13.875Z,99.90
2023-03-28T06:20:40.602Z,99.90
2023-03-28T06:23:07.226Z,99.90
2023-03-28T06:25:33.760Z,99.90
2023-03-28T06:28:00.352Z,99.90
2023-03-28T06:30:26.896Z,99.90
2023-03-28T06:32:53.529Z,99.90
2023-03-28T06:35:20.182Z,99.90
2023-03-28T06:37:46.739Z,99.90
2023-03-28T06:40:13.231Z,99.90
2023-03-28T06:42:39.819Z,99.90
2023-03-28T06:45:07.137Z,99.90
2023-03-28T06:47:33.665Z,99.90
2023-03-28T06:50:00.341Z,99.90
2023-03-28T06:52:27.171Z,99.90
2023-03-28T06:54:53.755Z,99.90
2023-03-28T06:57:20.444Z,99.90
2023-03-28T06:59:47.071Z,99.90
2023-03-28T07:02:13.620Z,99.90
2023-03-28T07:04:40.245Z,99.90
2023-03-28T07:07:09.124Z,99.90
2023-03-28T07:09:36.786Z,99.90
2023-03-28T07:12:03.899Z,99.90
2023-03-28T07:14:30.776Z,99.90
2023-03-28T07:16:57.454Z,99.90
2023-03-28T07:19:24.830Z,99.90
2023-03-28T07:21:52.854Z,99.90
2023-03-28T07:24:19.927Z,99.90
2023-03-28T07:26:46.511Z,99.90
2023-03-28T07:29:13.096Z,99.90
2023-03-28T07:31:39.673Z,99.90
2023-03-28T07:34:06.294Z,99.90
2023-03-28T07:36:32.840Z,99.90
2023-03-28T07:38:59.455Z,99.90
2023-03-28T07:41:26.412Z,99.90
2023-03-28T07:43:52.958Z,99.90
2023-03-28T07:46:20.692Z,99.90
2023-03-28T07:48:47.262Z,99.90
2023-03-28T07:51:14.226Z,99.90
2023-03-28T07:53:40.820Z,99.90
2023-03-28T07:56:12.356Z,99.90
2023-03-28T07:58:40.782Z,99.90
2023-03-28T08:01:09.187Z,99.90
2023-03-28T08:03:36.271Z,99.90
2023-03-28T08:06:20.140Z,99.90
2023-03-28T08:08:55.161Z,99.90
2023-03-28T08:11:22.708Z,99.90
2023-03-28T08:13:49.227Z,99.90
2023-03-28T08:16:15.855Z,99.90
2023-03-28T08:18:42.390Z,99.90
2023-03-28T08:21:08.994Z,99.90
2023-03-28T08:23:36.569Z,99.90
2023-03-28T08:26:05.880Z,99.90
2023-03-28T08:28:33.903Z,99.90
2023-03-28T08:31:01.656Z,99.90
2023-03-28T08:33:29.548Z,99.90
2023-03-28T08:35:56.746Z,99.90
2023-03-28T08:38:23.508Z,99.90
2023-03-28T08:41:18.828Z,99.90
2023-03-28T08:44:11.848Z,99.90
2023-03-28T08:46:41.811Z,99.90
2023-03-28T08:49:14.595Z,99.90
2023-03-28T08:51:46.651Z,99.90
2023-03-28T08:54:33.506Z,99.90
2023-03-28T08:57:02.706Z,99.90
2023-03-28T08:59:32.251Z,99.30
2023-03-28T09:01:58.849Z,99.90
2023-03-28T09:04:34.834Z,99.90
2023-03-28T09:07:24.118Z,99.90
2023-03-28T09:09:50.658Z,99.90
2023-03-28T09:12:38.423Z,98.50
2023-03-28T09:15:43.330Z,99.90
2023-03-28T09:18:30.667Z,98.30
2023-03-28T09:21:37.299Z,98.60
2023-03-28T09:24:40.256Z,98.00
2023-03-28T09:27:48.286Z,97.20
2023-03-28T09:30:26.902Z,97.50
2023-03-28T09:32:58.595Z,95.70
2023-03-28T09:35:28.158Z,97.00
2023-03-28T09:38:02.168Z,96.20
2023-03-28T09:40:30.599Z,96.50
2023-03-28T09:43:26.575Z,96.00
2023-03-28T09:46:00.129Z,96.60
2023-03-28T09:48:32.247Z,98.70
2023-03-28T09:50:59.851Z,96.80
2023-03-28T09:53:33.155Z,96.30
2023-03-28T09:56:28.289Z,96.00
2023-03-28T09:59:01.644Z,94.60
2023-03-28T10:01:35.717Z,97.70
2023-03-28T10:04:08.405Z,95.60
2023-03-28T10:06:37.640Z,94.40
2023-03-28T10:09:19.802Z,93.70
2023-03-28T10:11:55.335Z,95.30
2023-03-28T10:14:28.327Z,96.50
2023-03-28T10:16:54.966Z,95.50
2023-03-28T10:19:25.712Z,96.10
2023-03-28T10:21:52.690Z,95.40
2023-03-28T10:24:21.887Z,94.10
2023-03-28T10:26:48.642Z,93.90
2023-03-28T10:29:15.852Z,93.30
2023-03-28T10:31:48.571Z,93.90
2023-03-28T10:34:30.312Z,94.90
2023-03-28T10:36:56.888Z,94.30
2023-03-28T10:39:28.607Z,92.80
2023-03-28T10:42:02.398Z,92.80
2023-03-28T10:44:37.681Z,90.60
2023-03-28T10:47:15.918Z,92.10
2023-03-28T10:49:48.475Z,91.40
2023-03-28T10:53:04.224Z,90.70
2023-03-28T10:56:21.958Z,90.10
2023-03-28T10:59:14.025Z,91.10
2023-03-28T11:02:11.062Z,91.20
2023-03-28T11:04:52.560Z,88.90
2023-03-28T11:07:23.195Z,89.10
2023-03-28T11:10:00.075Z,90.90
2023-03-28T11:14:21.796Z,91.80
2023-03-28T11:15:58.386Z,89.90
2023-03-28T11:18:59.927Z,90.70
2023-03-28T11:21:33.043Z,90.50
2023-03-28T11:24:11.350Z,89.50
2023-03-28T11:27:14.649Z,90.40
2023-03-28T11:29:51.573Z,91.60
2023-03-28T11:32:31.549Z,88.00
2023-03-28T11:35:01.720Z,91.40
2023-03-28T11:37:34.247Z,90.30
2023-03-28T11:40:17.081Z,90.30
2023-03-28T11:42:50.958Z,87.70
2023-03-28T11:45:49.581Z,86.90
2023-03-28T11:48:24.183Z,89.70
2023-03-28T11:51:08.499Z,84.40
2023-03-28T11:53:57.251Z,84.70
2023-03-28T11:56:28.009Z,90.00
2023-03-28T11:59:02.156Z,90.20
2023-03-28T12:01:34.917Z,89.30
2023-03-28T12:04:17.405Z,88.20
2023-03-28T12:07:15.819Z,88.80
2023-03-28T12:10:22.149Z,88.70
2023-03-28T12:12:51.550Z,85.50
2023-03-28T12:15:26.164Z,85.00
2023-03-28T12:17:58.029Z,83.80
2023-03-28T12:20:49.414Z,87.50
2023-03-28T12:23:28.902Z,85.80
2023-03-28T12:26:12.811Z,83.50
2023-03-28T12:28:47.481Z,85.00
2023-03-28T12:31:30.388Z,85.80
2023-03-28T12:34:34.006Z,86.00
2023-03-28T12:37:11.941Z,87.50
2023-03-28T12:40:01.878Z,89.90
2023-03-28T12:42:29.203Z,90.40
2023-03-28T12:45:01.686Z,89.00
2023-03-28T12:47:31.168Z,87.90
2023-03-28T12:50:07.496Z,88.10
2023-03-28T12:52:36.762Z,89.10
2023-03-28T12:55:27.856Z,91.70
2023-03-28T12:58:13.983Z,88.10
2023-03-28T13:00:56.410Z,89.90
2023-03-28T13:03:22.896Z,87.60
2023-03-28T13:06:17.375Z,89.60
2023-03-28T13:09:11.319Z,89.70
2023-03-28T13:12:00.136Z,88.10
2023-03-28T13:14:37.361Z,88.20
2023-03-28T13:17:23.233Z,88.40
2023-03-28T13:19:53.760Z,88.70
2023-03-28T13:22:32.991Z,84.20
2023-03-28T13:25:26.607Z,87.10
2023-03-28T13:27:57.827Z,86.80
2023-03-28T13:30:26.415Z,83.50
2023-03-28T13:33:00.269Z,85.00
2023-03-28T13:35:40.406Z,82.80
2023-03-28T13:38:15.308Z,81.00
2023-03-28T13:40:53.096Z,82.30
2023-03-28T13:43:26.130Z,84.00
2023-03-28T13:46:00.344Z,80.80
2023-03-28T13:48:37.022Z,81.20
2023-03-28T13:51:06.892Z,80.70
2023-03-28T13:53:46.983Z,80.90
2023-03-28T13:56:19.684Z,80.10
2023-03-28T13:58:49.309Z,80.10
2023-03-28T14:01:24.218Z,79.80
2023-03-28T14:03:51.879Z,82.50
2023-03-28T14:06:29.821Z,81.30
2023-03-28T14:09:00.526Z,78.80
2023-03-28T14:11:34.516Z,82.00
2023-03-28T14:14:24.803Z,80.80
2023-03-28T14:16:52.426Z,86.40
2023-03-28T14:19:23.614Z,87.30
2023-03-28T14:21:50.338Z,82.60
2023-03-28T14:24:24.738Z,81.50
2023-03-28T14:26:51.920Z,81.70
2023-03-28T14:29:19.729Z,84.80
2023-03-28T14:31:48.358Z,85.20
2023-03-28T14:34:32.274Z,86.40
2023-03-28T14:37:16.572Z,88.00
2023-03-28T14:39:45.236Z,90.30
2023-03-28T14:42:14.947Z,88.60
2023-03-28T14:44:44.344Z,86.80
2023-03-28T14:47:28.209Z,85.70
2023-03-28T14:49:55.649Z,87.10
2023-03-28T14:52:29.495Z,85.90
2023-03-28T14:54:57.991Z,87.10
2023-03-28T14:57:25.545Z,88.80
2023-03-28T14:59:54.898Z,87.60
2023-03-28T15:02:39.479Z,87.80
2023-03-28T15:05:09.371Z,85.60
2023-03-28T15:07:37.078Z,86.30
2023-03-28T15:10:11.683Z,83.30
2023-03-28T15:13:04.349Z,86.40
2023-03-28T15:15:42.538Z,86.50
2023-03-28T15:18:16.539Z,88.70
2023-03-28T15:20:47.785Z,90.30
2023-03-28T15:23:27.480Z,90.30
2023-03-28T15:25:55.420Z,90.50
2023-03-28T15:28:22.449Z,90.20
2023-03-28T15:30:49.792Z,89.80
2023-03-28T15:33:22.108Z,90.50
2023-03-28T15:35:49.449Z,87.30
2023-03-28T15:38:18.281Z,90.00
2023-03-28T15:40:47.923Z,88.40
2023-03-28T15:43:26.951Z,85.00
2023-03-28T15:45:58.304Z,86.00
2023-03-28T15:48:25.199Z,87.10
2023-03-28T15:50:56.170Z,85.80
2023-03-28T15:53:28.233Z,87.10
2023-03-28T15:55:58.771Z,87.60
2023-03-28T15:58:25.523Z,90.00
2023-03-28T16:00:55.063Z,90.20
2023-03-28T16:03:21.756Z,89.40
2023-03-28T16:05:49.803Z,91.50
2023-03-28T16:08:24.421Z,91.80
2023-03-28T16:10:51.278Z,92.50
2023-03-28T16:13:18.109Z,92.40
2023-03-28T16:15:44.960Z,91.70
2023-03-28T16:18:12.058Z,91.90
2023-03-28T16:20:39.585Z,92.40
2023-03-28T16:23:06.650Z,94.20
2023-03-28T16:25:33.679Z,95.60
2023-03-28T16:28:00.518Z,94.00
2023-03-28T16:30:31.405Z,93.80
2023-03-28T16:32:58.248Z,93.20
2023-03-28T16:35:26.932Z,94.20
2023-03-28T16:37:53.886Z,95.10
2023-03-28T16:40:20.943Z,95.00
2023-03-28T16:42:47.465Z,94.90
2023-03-28T16:45:14.188Z,95.10
2023-03-28T16:47:41.262Z,94.60
2023-03-28T16:50:09.518Z,97.10
2023-03-28T16:52:38.751Z,95.20
2023-03-28T16:55:07.722Z,96.00
2023-03-28T16:57:34.242Z,97.40
2023-03-28T17:00:01.182Z,96.00
2023-03-28T17:02:27.830Z,96.90
2023-03-28T17:04:54.463Z,97.90
2023-03-28T17:07:21.024Z,99.10
2023-03-28T17:09:48.228Z,99.90
2023-03-28T17:12:14.745Z,99.90
2023-03-28T17:14:41.357Z,99.90
2023-03-28T17:17:08.363Z,99.20
2023-03-28T17:19:35.225Z,99.60
2023-03-28T17:22:02.513Z,99.90
2023-03-28T17:24:29.901Z,99.90
2023-03-28T17:26:56.659Z,99.90
2023-03-28T17:29:24.363Z,99.90
2023-03-28T17:31:52.570Z,99.90
2023-03-28T17:34:19.372Z,99.90
2023-03-28T17:36:45.974Z,99.90
2023-03-28T17:39:12.799Z,99.90
2023-03-28T17:41:39.387Z,99.90
2023-03-28T17:44:06.831Z,99.90
2023-03-28T17:46:33.668Z,99.70
2023-03-28T17:49:00.280Z,94.50
2023-03-28T17:51:27.119Z,96.10
2023-03-28T17:53:53.996Z,96.40
2023-03-28T17:56:21.610Z,98.20
2023-03-28T17:58:48.320Z,99.90
2023-03-28T18:01:18.284Z,95.50
2023-03-28T18:03:45.969Z,99.90
2023-03-28T18:06:13.726Z,99.90
2023-03-28T18:08:40.541Z,99.90
2023-03-28T18:11:09.537Z,99.90
2023-03-28T18:13:37.167Z,99.90
2023-03-28T18:16:05.736Z,99.90
2023-03-28T18:18:32.934Z,99.90
2023-03-28T18:20:59.870Z,99.90
2023-03-28T18:23:26.408Z,99.90
2023-03-28T18:25:53.171Z,99.90
2023-03-28T18:28:26.420Z,99.90
2023-03-28T18:30:53.877Z,99.90
2023-03-28T18:33:22.015Z,99.90
2023-03-28T18:35:49.244Z,99.90
2023-03-28T18:38:15.804Z,99.90
2023-03-28T18:40:42.559Z,99.90
2023-03-28T18:43:09.994Z,99.90
2023-03-28T18:45:37.442Z,99.90
2023-03-28T18:48:04.801Z,99.90
2023-03-28T18:50:31.912Z,99.90
2023-03-28T18:52:58.582Z,99.90
2023-03-28T18:55:25.307Z,99.90
2023-03-28T18:57:52.433Z,99.90
2023-03-28T19:00:19.655Z,99.90
2023-03-28T19:02:47.780Z,99.90
2023-03-28T19:05:16.347Z,99.90
2023-03-28T19:07:44.068Z,99.90
2023-03-28T19:10:13.402Z,99.90
2023-03-28T19:12:41.268Z,99.90
2023-03-28T19:15:10.348Z,99.90
2023-03-28T19:17:38.346Z,99.90
2023-03-28T19:20:13.217Z,99.90
2023-03-28T19:22:40.404Z,99.90
2023-03-28T19:25:09.099Z,99.90
2023-03-28T19:27:36.525Z,99.90
2023-03-28T19:30:04.190Z,99.90
2023-03-28T19:32:32.474Z,99.90
2023-03-28T19:34:59.036Z,99.90
2023-03-28T19:37:25.650Z,99.90
2023-03-28T19:39:52.303Z,99.90
2023-03-28T19:42:20.208Z,99.90
2023-03-28T19:44:46.800Z,99.90
2023-03-28T19:47:13.358Z,99.90
2023-03-28T19:49:40.001Z,99.90
2023-03-28T19:52:09.680Z,99.90
2023-03-28T19:54:36.967Z,99.90
2023-03-28T19:57:06.027Z,99.90
2023-03-28T19:59:34.023Z,99.90
2023-03-28T20:02:00.690Z,99.90
2023-03-28T20:04:28.043Z,99.90
2023-03-28T20:06:54.826Z,99.90
2023-03-28T20:09:21.580Z,99.90
2023-03-28T20:11:48.112Z,99.90
2023-03-28T20:14:17.332Z,99.90
2023-03-28T20:16:44.078Z,99.90
2023-03-28T20:19:10.821Z,99.90
2023-03-28T20:21:37.591Z,99.90
2023-03-28T20:24:04.598Z,99.90
2023-03-28T20:26:31.848Z,99.90
2023-03-28T20:28:59.328Z,99.90
2023-03-28T20:31:26.832Z,99.90
2023-03-28T20:33:54.688Z,99.90
2023-03-28T20:36:22.318Z,99.90
2023-03-28T20:38:48.947Z,99.90
2023-03-28T20:41:17.469Z,99.90
2023-03-28T20:43:47.521Z,99.90
2023-03-28T20:46:20.033Z,99.90
2023-03-28T20:48:51.946Z,99.90
2023-03-28T20:51:22.257Z,99.90
2023-03-28T20:53:57.083Z,99.90
2023-03-28T20:56:24.681Z,99.90
2023-03-28T20:58:53.332Z,99.90
2023-03-28T21:01:21.575Z,99.90
2023-03-28T21:03:49.135Z,99.90
2023-03-28T21:06:34.486Z,99.90
2023-03-28T21:09:04.478Z,99.90
2023-03-28T21:11:33.529Z,99.90
2023-03-28T21:14:01.408Z,99.90
2023-03-28T21:16:29.616Z,99.90
2023-03-28T21:18:57.042Z,99.90
2023-03-28T21:21:24.273Z,99.90
2023-03-28T21:23:52.940Z,99.90
2023-03-28T21:26:21.280Z,99.90
2023-03-28T21:28:49.048Z,99.90
2023-03-28T21:31:20.843Z,99.90
2023-03-28T21:33:48.940Z,99.90
2023-03-28T21:36:17.395Z,99.90
2023-03-28T21:38:44.800Z,99.90
2023-03-28T21:41:12.663Z,99.90
2023-03-28T21:43:39.725Z,99.90
2023-03-28T21:46:07.343Z,99.90
2023-03-28T21:48:34.622Z,99.90
2023-03-28T21:51:02.908Z,99.90
2023-03-28T21:53:32.145Z,99.90
2023-03-28T21:55:59.283Z,99.90
2023-03-28T21:58:28.873Z,99.90
2023-03-28T22:00:55.827Z,99.90
2023-03-28T22:03:22.652Z,99.90
2023-03-28T22:05:51.813Z,99.90
2023-03-28T22:08:18.676Z,99.90
2023-03-28T22:10:48.605Z,99.90
2023-03-28T22:13:15.205Z,99.90
2023-03-28T22:15:42.308Z,99.90
2023-03-28T22:18:09.271Z,99.90
2023-03-28T22:20:38.057Z,99.90
2023-03-28T22:23:06.147Z,99.90
2023-03-28T22:25:38.450Z,99.90
2023-03-28T22:28:08.142Z,99.90
2023-03-28T22:30:35.944Z,99.90
2023-03-28T22:33:03.668Z,99.90
2023-03-28T22:35:32.182Z,99.90
2023-03-28T22:37:59.406Z,99.90
2023-03-28T22:40:26.064Z,99.90
2023-03-28T22:42:53.941Z,99.90
2023-03-28T22:45:26.330Z,99.90
2023-03-28T22:47:53.463Z,99.90
2023-03-28T22:50:22.317Z,99.90
2023-03-28T22:52:52.596Z,99.90
2023-03-28T22:55:22.328Z,99.90
2023-03-28T22:57:51.664Z,99.90
2023-03-28T23:00:21.669Z,99.90
2023-03-28T23:02:48.862Z,99.90
2023-03-28T23:05:15.816Z,99.90
2023-03-28T23:07:42.799Z,99.90
2023-03-28T23:10:14.349Z,99.90
2023-03-28T23:12:42.554Z,99.90
2023-03-28T23:15:10.310Z,99.90
2023-03-28T23:17:38.063Z,99.90
2023-03-28T23:20:15.735Z,99.90
2023-03-28T23:22:44.308Z,99.90
2023-03-28T23:25:12.514Z,99.90
2023-03-28T23:27:39.889Z,99.90
2023-03-28T23:30:07.569Z,99.90
2023-03-28T23:32:34.162Z,99.90
2023-03-28T23:35:00.930Z,99.90
2023-03-28T23:37:27.603Z,99.90
2023-03-28T23:39:55.174Z,99.90
2023-03-28T23:42:22.649Z,99.90
2023-03-28T23:44:49.312Z,99.90
2023-03-28T23:47:18.070Z,99.90
2023-03-28T23:49:44.593Z,99.90
2023-03-28T23:52:13.102Z,99.90
2023-03-28T23:54:40.128Z,99.90
2023-03-28T23:57:07.545Z,99.90
2023-03-28T23:59:34.472Z,99.90
